Latest Coastal Weather Observations for Gunn Point

IDD60701

Issued at 1:41 am CST Wednesday 27 May 2015 (issued every 10 minutes, with the page automatically refreshed every 10 minutes)

About coastal observations | Map of coastal stations | Coastal observations for NT | Marine services | Other Formats
Station Details ID: 014023 Name: GUNN POINT Lat: -12.25 Lon: 131.04 Height: 25.0 m
Data from the previous 72 hours. | See also: Recent months for locations in Northern Territory
Date/Time
CST
Temp

°C
Wind Pressure Rain
since 9am
mm
Weather Cloud Vis
km
Sea
Height
m
Swell
Dir
 
Speed
knots
Gust
knots
hPa Trend Height
m
Period
s
Dir
27/01:30am 21.0 CALM 0 0 1014.0 - 0.0 - - - - - - -
27/01:00am 21.0 CALM 0 0 1014.2 - 0.0 - - - - - - -
27/12:30am 21.2 CALM 0 0 1014.4 - 0.0 - - - - - - -
27/12:00am 21.4 CALM 0 0 1014.8 - 0.0 - - - - - - -
 
Date/Time
CST
Temp

°C
Wind Pressure Rain
since 9am
mm
Weather Cloud Vis
km
Sea
Height
m
Swell
Dir
 
Speed
knots
Gust
knots
hPa Trend Height
m
Period
s
Dir
26/11:30pm 21.5 CALM 0 0 1015.0 - 0.0 - - - - - - -
26/11:00pm 22.0 CALM 0 0 1015.0 - 0.0 - - - - - - -
26/10:30pm 21.7 CALM 0 0 1014.8 - 0.0 - - - - - - -
26/10:00pm 22.1 CALM 0 0 1014.6 - 0.0 - - - - - - -
26/09:30pm 22.4 CALM 0 0 1014.2 - 0.0 - - - - - - -
26/09:00pm 22.8 CALM 0 0 1014.0 - 0.0 - - - - - - -
26/08:30pm 23.5 CALM 0 0 1013.9 - 0.0 - - - - - - -
26/08:00pm 24.8 ENE 1 3 1013.4 - 0.0 - - - - - - -
26/07:30pm 25.1 NE 2 3 1013.1 - 0.0 - - - - - - -
26/07:00pm 25.4 NE 2 4 1012.8 - 0.0 - - - - - - -
26/06:30pm 26.8 NE 2 3 1012.5 - 0.0 - - - - - - -
26/06:00pm 28.3 NNE 2 5 1012.2 - 0.0 - - - - - - -
26/05:30pm 29.7 NNE 3 5 1012.0 - 0.0 - - - - - - -
26/05:00pm 30.3 NE 4 7 1011.7 - 0.0 - - - - - - -
26/04:30pm 31.0 NNE 5 8 1011.7 - 0.0 - - - - - - -
26/04:00pm 31.4 NNE 6 10 1011.8 - 0.0 - - - - - - -
26/03:30pm 32.0 NE 5 9 1011.9 - 0.0 - - - - - - -
26/03:00pm 31.8 NE 5 9 1012.0 - 0.0 - - - - - - -
26/02:30pm 32.1 NE 6 13 1012.4 - 0.0 - - - - - - -
26/02:00pm 33.0 NE 6 9 1012.7 - 0.0 - - - - - - -
26/01:30pm 32.5 ENE 6 12 1013.1 - 0.0 - - - - - - -
26/01:00pm 32.8 ENE 5 10 1013.6 - 0.0 - - - - - - -
26/12:30pm 32.9 ENE 4 7 1014.2 - 0.0 - - - - - - -
26/12:00pm 32.4 E 5 9 1014.6 - 0.0 - - - - - - -
26/11:30am 31.4 ENE 6 10 1015.3 - 0.0 - - - - - - -
26/11:00am 31.4 ENE 5 9 1015.6 - 0.0 - - - - - - -
26/10:30am 30.4 E 6 9 1016.0 - 0.0 - - - - - - -
26/10:00am 29.5 ESE 5 8 1016.4 - 0.0 - - - - - - -
26/09:30am 28.3 ESE 4 8 1016.3 - 0.0 - - - - - - -
26/09:00am 26.8 ESE 3 6 1016.2 - 0.0 - - - - - - -
26/08:30am 25.1 ESE 2 4 1015.9 - 0.0 - - - - - - -
26/08:00am 21.9 CALM 0 3 1015.8 - 0.0 - - - - - - -
26/07:30am 19.8 CALM 0 0 1015.6 - 0.0 - - - - - - -
26/07:00am 18.9 CALM 0 0 1015.3 - 0.0 - - - - - - -
26/06:30am 18.8 SE 1 1 1015.2 - 0.0 - - - - - - -
26/06:00am 19.1 CALM 0 0 1014.6 - 0.0 - - - - - - -
26/05:30am 19.6 CALM 0 0 1014.4 - 0.0 - - - - - - -
26/05:00am 19.3 CALM 0 0 1014.3 - 0.0 - - - - - - -
26/04:30am 19.3 SSE 2 3 1014.4 - 0.0 - - - - - - -
26/04:00am 19.5 CALM 0 0 1014.2 - 0.0 - - - - - - -
26/03:30am 20.1 CALM 0 0 1014.3 - 0.0 - - - - - - -
26/03:00am 20.4 CALM 0 0 1014.5 - 0.0 - - - - - - -
26/02:30am 20.5 CALM 0 0 1014.7 - 0.0 - - - - - - -
26/02:00am 20.8 CALM 0 1 1014.9 - 0.0 - - - - - - -
26/01:30am 21.9 SSE 2 3 1015.3 - 0.0 - - - - - - -
26/01:00am 21.9 SE 3 4 1015.5 - 0.0 - - - - - - -
26/12:30am 21.8 SSE 3 5 1015.6 - 0.0 - - - - - - -
26/12:00am 20.1 CALM 0 0 1015.5 - 0.0 - - - - - - -
 
Date/Time
CST
Temp

°C
Wind Pressure Rain
since 9am
mm
Weather Cloud Vis
km
Sea
Height
m
Swell
Dir
 
Speed
knots
Gust
knots
hPa Trend Height
m
Period
s
Dir
25/11:30pm 20.3 CALM 0 0 1015.5 - 0.0 - - - - - - -
25/11:00pm 20.4 CALM 0 0 1015.6 - 0.0 - - - - - - -
25/10:30pm 20.8 CALM 0 1 1015.7 - 0.0 - - - - - - -
25/10:00pm 21.1 NE 2 3 1015.7 - 0.0 - - - - - - -
25/09:30pm 21.1 CALM 0 0 1015.6 - 0.0 - - - - - - -
25/09:00pm 21.7 NE 1 2 1015.4 - 0.0 - - - - - - -
25/08:30pm 22.0 CALM 0 0 1015.1 - 0.0 - - - - - - -
25/08:00pm 23.2 NE 1 2 1014.7 - 0.0 - - - - - - -
25/07:30pm 23.5 NE 2 3 1014.2 - 0.0 - - - - - - -
25/07:00pm 24.1 NE 1 2 1014.0 - 0.0 - - - - - - -
25/06:30pm 26.2 ENE 2 3 1013.8 - 0.0 - - - - - - -
25/06:00pm 27.9 NE 3 5 1013.6 - 0.0 - - - - - - -
25/05:30pm 29.9 NE 3 4 1013.3 - 0.0 - - - - - - -
25/05:00pm 30.4 NE 2 4 1013.1 - 0.0 - - - - - - -
25/04:30pm 30.9 NE 3 6 1013.1 - 0.0 - - - - - - -
25/04:00pm 30.6 NE 4 8 1013.3 - 0.0 - - - - - - -
25/03:30pm 31.1 ENE 5 9 1013.2 - 0.0 - - - - - - -
25/03:00pm 31.3 E 6 11 1013.3 - 0.0 - - - - - - -
25/02:30pm 31.1 ENE 6 11 1013.5 - 0.0 - - - - - - -
25/02:00pm 30.8 ENE 7 13 1013.9 - 0.0 - - - - - - -
25/01:30pm 30.7 E 7 12 1014.4 - 0.0 - - - - - - -
25/01:00pm 31.0 E 5 10 1014.9 - 0.0 - - - - - - -
25/12:30pm 30.4 E 7 12 1015.3 - 0.0 - - - - - - -
25/12:00pm 31.3 ESE 7 13 1015.5 - 0.0 - - - - - - -
25/11:30am 30.0 E 7 11 1015.8 - 0.0 - - - - - - -
25/11:00am 29.4 E 6 10 1016.1 - 0.0 - - - - - - -
25/10:30am 28.9 E 5 9 1016.3 - 0.0 - - - - - - -
25/10:00am 28.3 ESE 4 7 1016.6 - 0.0 - - - - - - -
25/09:30am 26.8 ESE 3 4 1016.6 - 0.0 - - - - - - -
25/09:00am 25.4 ESE 3 6 1016.6 - 0.0 - - - - - - -
25/08:30am 23.6 ESE 3 5 1016.2 - 0.0 - - - - - - -
25/08:00am 20.6 ESE 4 6 1016.0 - 0.0 - - - - - - -
25/07:30am 19.9 ESE 4 6 1015.8 - 0.0 - - - - - - -
25/07:00am 19.2 ESE 4 6 1015.5 - 0.0 - - - - - - -
25/06:30am 18.3 ESE 3 5 1015.0 - 0.0 - - - - - - -
25/06:00am 17.5 ESE 3 5 1014.7 - 0.0 - - - - - - -
25/05:30am 16.1 SE 3 4 1014.6 - 0.0 - - - - - - -
25/05:00am 16.5 SE 4 5 1014.6 - 0.0 - - - - - - -
25/04:30am 15.5 SE 3 5 1014.4 - 0.0 - - - - - - -
25/04:00am 15.4 SSE 1 3 1014.5 - 0.0 - - - - - - -
25/03:30am 15.7 CALM 0 0 1014.6 - 0.0 - - - - - - -
25/03:00am 15.7 CALM 0 0 1015.0 - 0.0 - - - - - - -
25/02:30am 15.1 CALM 0 0 1015.1 - 0.0 - - - - - - -
25/02:00am 15.4 CALM 0 0 1015.3 - 0.0 - - - - - - -
25/01:30am 15.5 CALM 0 0 1015.4 - 0.0 - - - - - - -
25/01:00am 15.4 SE 1 2 1015.5 - 0.0 - - - - - - -
25/12:30am 16.0 CALM 0 0 1015.6 - 0.0 - - - - - - -
25/12:00am 15.9 CALM 0 0 1015.6 - 0.0 - - - - - - -
 
Date/Time
CST
Temp

°C
Wind Pressure Rain
since 9am
mm
Weather Cloud Vis
km
Sea
Height
m
Swell
Dir
 
Speed
knots
Gust
knots
hPa Trend Height
m
Period
s
Dir
24/11:30pm 15.6 SSE 1 2 1015.7 - 0.0 - - - - - - -
24/11:00pm 15.8 SSE 1 3 1015.5 - 0.0 - - - - - - -
24/10:30pm 15.8 CALM 0 0 1015.4 - 0.0 - - - - - - -
24/10:00pm 15.9 CALM 0 0 1015.3 - 0.0 - - - - - - -
24/09:30pm 16.5 CALM 0 0 1015.1 - 0.0 - - - - - - -
24/09:00pm 16.7 CALM 0 0 1014.8 - 0.0 - - - - - - -
24/08:30pm 17.4 CALM 0 0 1014.5 - 0.0 - - - - - - -
24/08:00pm 18.6 NE 1 3 1014.1 - 0.0 - - - - - - -
24/07:30pm 19.7 ENE 2 3 1013.7 - 0.0 - - - - - - -
24/07:00pm 21.9 NE 2 4 1013.4 - 0.0 - - - - - - -
24/06:30pm 23.7 NE 3 4 1013.2 - 0.0 - - - - - - -
24/06:00pm 25.6 NE 3 5 1012.9 - 0.0 - - - - - - -
24/05:30pm 27.5 NE 4 7 1012.7 - 0.0 - - - - - - -
24/05:00pm 28.4 NE 5 9 1012.5 - 0.0 - - - - - - -
24/04:30pm 29.7 NE 4 8 1012.4 - 0.0 - - - - - - -
24/04:00pm 30.6 NE 5 9 1012.2 - 0.0 - - - - - - -
24/03:30pm 31.3 NNE 4 6 1012.1 - 0.0 - - - - - - -
24/03:00pm 32.2 ENE 5 8 1012.2 - 0.0 - - - - - - -
24/02:30pm 32.0 ENE 4 11 1012.3 - 0.0 - - - - - - -
24/02:00pm 31.8 E 5 8 1012.7 - 0.0 - - - - - - -
24/01:30pm 31.5 ESE 4 9 1013.0 - 0.0 - - - - - - -
24/01:00pm 30.6 E 6 10 1013.6 - 0.0 - - - - - - -
24/12:30pm 30.0 ESE 6 11 1014.1 - 0.0 - - - - - - -
24/12:00pm 28.9 ESE 8 12 1014.4 - 0.0 - - - - - - -
24/11:30am 28.6 E 6 12 1014.9 - 0.0 - - - - - - -
24/11:00am 27.9 ESE 7 11 1015.2 - 0.0 - - - - - - -
24/10:30am 27.2 ESE 5 10 1015.4 - 0.0 - - - - - - -
24/10:00am 26.1 ESE 7 11 1015.6 - 0.0 - - - - - - -
24/09:30am 24.8 ESE 4 7 1015.7 - 0.0 - - - - - - -
24/09:00am 23.3 SE 4 8 1015.7 - 0.0 - - - - - - -
24/08:30am 21.9 SE 4 7 1015.5 - 0.0 - - - - - - -
24/08:00am 20.4 SE 4 8 1015.2 - 0.0 - - - - - - -
24/07:30am 18.1 SE 3 6 1014.8 - 0.0 - - - - - - -
24/07:00am 15.9 SE 4 5 1014.4 - 0.0 - - - - - - -
24/06:30am 14.8 SE 3 4 1014.3 - 0.0 - - - - - - -
24/06:00am 16.4 SE 3 4 1014.1 - 0.0 - - - - - - -
24/05:30am 17.9 SE 4 5 1013.9 - 0.0 - - - - - - -
24/05:00am 15.3 SE 4 5 1013.9 - 0.0 - - - - - - -
24/04:30am 16.0 ESE 2 4 1014.0 - 0.0 - - - - - - -
24/04:00am 17.7 ESE 3 4 1013.9 - 0.0 - - - - - - -
24/03:30am 18.5 ESE 3 6 1014.1 - 0.0 - - - - - - -
24/03:00am 18.0 SE 3 5 1014.0 - 0.0 - - - - - - -
24/02:30am 17.3 SE 3 5 1014.1 - 0.0 - - - - - - -
24/02:00am 16.1 SE 3 4 1014.2 - 0.0 - - - - - - -

Other Formats:

Comma delimited format used in spreadsheet applications
http://www.bom.gov.au/fwo/IDD60701/IDD60701.99501.axf

JavaScript Object Notation format (JSON) in row-major order
http://www.bom.gov.au/fwo/IDD60701/IDD60701.99501.json